sensor_id;sensor_type;location;lat;lon;timestamp;pressure;altitude;pressure_sealevel;temperature;humidity
72294;BME280;60632;49.236;8.398;2022-09-09T00:00:35;100140.06;;;22.73;58.16
72294;BME280;60632;49.236;8.398;2022-09-09T00:03:45;100138.44;;;22.72;58.18
72294;BME280;60632;49.236;8.398;2022-09-09T00:15:59;100111.47;;;22.69;58.11
72294;BME280;60632;49.236;8.398;2022-09-09T00:25:14;100110.97;;;22.67;58.15
72294;BME280;60632;49.236;8.398;2022-09-09T00:28:22;100105.44;;;22.67;58.09
72294;BME280;60632;49.236;8.398;2022-09-09T00:31:25;100110.16;;;22.66;58.17
72294;BME280;60632;49.236;8.398;2022-09-09T00:34:26;100125.91;;;22.66;58.23
72294;BME280;60632;49.236;8.398;2022-09-09T00:37:28;100122.34;;;22.65;58.05
72294;BME280;60632;49.236;8.398;2022-09-09T00:40:33;100111.59;;;22.64;58.23
72294;BME280;60632;49.236;8.398;2022-09-09T00:43:38;100110.00;;;22.63;58.20
72294;BME280;60632;49.236;8.398;2022-09-09T00:53:36;100126.91;;;22.61;58.11
72294;BME280;60632;49.236;8.398;2022-09-09T00:56:31;100124.44;;;22.59;58.12
72294;BME280;60632;49.236;8.398;2022-09-09T01:02:52;100136.63;;;22.58;58.13
72294;BME280;60632;49.236;8.398;2022-09-09T01:12:26;100132.56;;;22.56;58.22
72294;BME280;60632;49.236;8.398;2022-09-09T01:15:28;100115.16;;;22.55;58.28
72294;BME280;60632;49.236;8.398;2022-09-09T01:18:37;100119.88;;;22.55;58.31
72294;BME280;60632;49.236;8.398;2022-09-09T01:28:04;100121.34;;;22.52;58.35
72294;BME280;60632;49.236;8.398;2022-09-09T01:31:06;100136.28;;;22.51;58.16
72294;BME280;60632;49.236;8.398;2022-09-09T01:34:13;100139.03;;;22.51;58.20
72294;BME280;60632;49.236;8.398;2022-09-09T01:37:13;100127.16;;;22.51;58.26
72294;BME280;60632;49.236;8.398;2022-09-09T01:40:14;100129.09;;;22.50;58.26
72294;BME280;60632;49.236;8.398;2022-09-09T01:43:14;100133.00;;;22.49;58.38
72294;BME280;60632;49.236;8.398;2022-09-09T01:46:15;100132.22;;;22.49;58.30
72294;BME280;60632;49.236;8.398;2022-09-09T01:49:16;100125.88;;;22.48;58.30
72294;BME280;60632;49.236;8.398;2022-09-09T01:52:17;100130.88;;;22.46;58.43
72294;BME280;60632;49.236;8.398;2022-09-09T01:55:18;100130.88;;;22.46;58.34
72294;BME280;60632;49.236;8.398;2022-09-09T02:04:49;100117.38;;;22.45;58.45
72294;BME280;60632;49.236;8.398;2022-09-09T02:07:51;100118.53;;;22.44;58.38
72294;BME280;60632;49.236;8.398;2022-09-09T02:10:55;100114.16;;;22.43;58.32
72294;BME280;60632;49.236;8.398;2022-09-09T02:13:57;100114.97;;;22.43;58.30
72294;BME280;60632;49.236;8.398;2022-09-09T02:17:01;100123.25;;;22.43;58.27
72294;BME280;60632;49.236;8.398;2022-09-09T02:20:08;100114.44;;;22.41;58.33
72294;BME280;60632;49.236;8.398;2022-09-09T02:23:10;100126.63;;;22.40;58.38
72294;BME280;60632;49.236;8.398;2022-09-09T02:26:11;100129.41;;;22.40;58.44
72294;BME280;60632;49.236;8.398;2022-09-09T02:29:14;100133.31;;;22.39;58.48
72294;BME280;60632;49.236;8.398;2022-09-09T02:32:17;100119.81;;;22.38;58.27
72294;BME280;60632;49.236;8.398;2022-09-09T02:35:19;100129.22;;;22.36;58.35
72294;BME280;60632;49.236;8.398;2022-09-09T02:38:21;100130.03;;;22.37;58.32
72294;BME280;60632;49.236;8.398;2022-09-09T02:41:32;100133.13;;;22.35;58.43
72294;BME280;60632;49.236;8.398;2022-09-09T02:44:33;100131.47;;;22.34;58.30
72294;BME280;60632;49.236;8.398;2022-09-09T02:47:35;100127.91;;;22.34;58.42
72294;BME280;60632;49.236;8.398;2022-09-09T02:50:41;100118.81;;;22.33;58.27
72294;BME280;60632;49.236;8.398;2022-09-09T02:56:47;100110.88;;;22.32;58.32
72294;BME280;60632;49.236;8.398;2022-09-09T02:59:50;100106.47;;;22.31;58.23
72294;BME280;60632;49.236;8.398;2022-09-09T03:02:52;100113.13;;;22.30;58.54
72294;BME280;60632;49.236;8.398;2022-09-09T03:05:53;100096.56;;;22.30;58.39
72294;BME280;60632;49.236;8.398;2022-09-09T03:08:53;100100.47;;;22.29;58.42
72294;BME280;60632;49.236;8.398;2022-09-09T03:11:54;100109.84;;;22.28;58.34
72294;BME280;60632;49.236;8.398;2022-09-09T03:14:55;100113.75;;;22.27;58.50
72294;BME280;60632;49.236;8.398;2022-09-09T03:17:55;100124.81;;;22.27;58.53
72294;BME280;60632;49.236;8.398;2022-09-09T03:20:57;100117.66;;;22.26;58.54
72294;BME280;60632;49.236;8.398;2022-09-09T03:23:58;100125.44;;;22.24;58.44
72294;BME280;60632;49.236;8.398;2022-09-09T03:26:58;100118.28;;;22.23;58.38
72294;BME280;60632;49.236;8.398;2022-09-09T03:29:58;100127.38;;;22.23;58.41
72294;BME280;60632;49.236;8.398;2022-09-09T03:32:59;100124.63;;;22.23;58.44
72294;BME280;60632;49.236;8.398;2022-09-09T03:35:59;100124.94;;;22.22;58.26
72294;BME280;60632;49.236;8.398;2022-09-09T03:38:59;100131.59;;;22.21;58.49
72294;BME280;60632;49.236;8.398;2022-09-09T03:42:00;100114.22;;;22.20;58.42
72294;BME280;60632;49.236;8.398;2022-09-09T03:45:04;100128.31;;;22.19;58.48
72294;BME280;60632;49.236;8.398;2022-09-09T03:48:05;100122.78;;;22.19;58.43
72294;BME280;60632;49.236;8.398;2022-09-09T03:51:06;100126.69;;;22.18;58.47
72294;BME280;60632;49.236;8.398;2022-09-09T03:54:06;100122.31;;;22.17;58.43
72294;BME280;60632;49.236;8.398;2022-09-09T03:57:09;100115.16;;;22.16;58.63
72294;BME280;60632;49.236;8.398;2022-09-09T04:00:10;100113.22;;;22.16;58.52
72294;BME280;60632;49.236;8.398;2022-09-09T04:03:11;100119.81;;;22.15;58.53
72294;BME280;60632;49.236;8.398;2022-09-09T04:06:12;100120.97;;;22.14;58.49
72294;BME280;60632;49.236;8.398;2022-09-09T04:09:14;100122.09;;;22.13;58.60
72294;BME280;60632;49.236;8.398;2022-09-09T04:12:15;100122.41;;;22.11;58.63
72294;BME280;60632;49.236;8.398;2022-09-09T04:15:16;100129.59;;;22.12;58.48
72294;BME280;60632;49.236;8.398;2022-09-09T04:18:18;100126.31;;;22.10;58.52
72294;BME280;60632;49.236;8.398;2022-09-09T04:21:19;100130.22;;;22.09;58.45
72294;BME280;60632;49.236;8.398;2022-09-09T04:24:20;100132.97;;;22.09;58.52
72294;BME280;60632;49.236;8.398;2022-09-09T04:27:21;100138.78;;;22.08;58.61
72294;BME280;60632;49.236;8.398;2022-09-09T04:30:22;100133.59;;;22.06;58.58
72294;BME280;60632;49.236;8.398;2022-09-09T04:33:23;100139.94;;;22.07;58.52
72294;BME280;60632;49.236;8.398;2022-09-09T04:36:25;100146.56;;;22.06;58.49
72294;BME280;60632;49.236;8.398;2022-09-09T04:39:25;100149.66;;;22.04;58.67
72294;BME280;60632;49.236;8.398;2022-09-09T04:42:26;100147.22;;;22.03;58.68
72294;BME280;60632;49.236;8.398;2022-09-09T04:45:27;100143.63;;;22.02;58.74
72294;BME280;60632;49.236;8.398;2022-09-09T04:48:28;100144.75;;;22.01;58.67
72294;BME280;60632;49.236;8.398;2022-09-09T04:51:28;100150.28;;;22.01;58.48
72294;BME280;60632;49.236;8.398;2022-09-09T04:54:31;100153.84;;;22.02;58.69
72294;BME280;60632;49.236;8.398;2022-09-09T04:57:32;100158.88;;;22.00;58.72
72294;BME280;60632;49.236;8.398;2022-09-09T05:00:33;100154.19;;;22.00;58.68
72294;BME280;60632;49.236;8.398;2022-09-09T05:03:35;100159.19;;;21.98;58.70
72294;BME280;60632;49.236;8.398;2022-09-09T05:06:36;100167.47;;;21.98;58.53
72294;BME280;60632;49.236;8.398;2022-09-09T05:09:37;100165.84;;;21.97;58.63
72294;BME280;60632;49.236;8.398;2022-09-09T05:12:37;100159.50;;;21.97;58.49
72294;BME280;60632;49.236;8.398;2022-09-09T05:15:37;100170.84;;;21.95;58.68
72294;BME280;60632;49.236;8.398;2022-09-09T05:18:38;100172.47;;;21.96;58.59
72294;BME280;60632;49.236;8.398;2022-09-09T05:21:39;100172.00;;;21.94;58.59
72294;BME280;60632;49.236;8.398;2022-09-09T05:24:39;100181.41;;;21.93;58.82
72294;BME280;60632;49.236;8.398;2022-09-09T05:27:39;100179.75;;;21.92;58.62
72294;BME280;60632;49.236;8.398;2022-09-09T05:30:39;100179.75;;;21.92;58.85
72294;BME280;60632;49.236;8.398;2022-09-09T05:33:40;100190.78;;;21.92;58.78
72294;BME280;60632;49.236;8.398;2022-09-09T05:36:43;100184.78;;;21.90;58.62
72294;BME280;60632;49.236;8.398;2022-09-09T05:39:43;100187.56;;;21.90;58.63
72294;BME280;60632;49.236;8.398;2022-09-09T05:42:43;100191.41;;;21.89;58.78
72294;BME280;60632;49.236;8.398;2022-09-09T05:45:44;100196.94;;;21.89;58.81
72294;BME280;60632;49.236;8.398;2022-09-09T05:48:47;100206.34;;;21.88;58.84
72294;BME280;60632;49.236;8.398;2022-09-09T05:51:51;100198.06;;;21.88;58.79
72294;BME280;60632;49.236;8.398;2022-09-09T05:54:51;100198.06;;;21.88;58.75
72294;BME280;60632;49.236;8.398;2022-09-09T05:57:52;100196.75;;;21.85;58.72
72294;BME280;60632;49.236;8.398;2022-09-09T06:00:52;100196.69;;;21.77;58.82
72294;BME280;60632;49.236;8.398;2022-09-09T06:03:54;100198.44;;;21.73;58.90
72294;BME280;60632;49.236;8.398;2022-09-09T06:06:54;100196.81;;;21.72;58.72
72294;BME280;60632;49.236;8.398;2022-09-09T06:09:54;100201.53;;;21.71;58.86
72294;BME280;60632;49.236;8.398;2022-09-09T06:12:56;100201.19;;;21.73;58.83
72294;BME280;60632;49.236;8.398;2022-09-09T06:15:56;100204.91;;;21.68;58.85
72294;BME280;60632;49.236;8.398;2022-09-09T06:18:57;100206.44;;;21.60;58.84
72294;BME280;60632;49.236;8.398;2022-09-09T06:21:57;100211.09;;;21.51;59.25
72294;BME280;60632;49.236;8.398;2022-09-09T06:24:58;100211.63;;;21.39;59.27
72294;BME280;60632;49.236;8.398;2022-09-09T06:28:01;100214.25;;;21.31;59.41
72294;BME280;60632;49.236;8.398;2022-09-09T06:31:03;100208.16;;;21.20;59.67
72294;BME280;60632;49.236;8.398;2022-09-09T06:34:05;100210.50;;;21.13;59.67
72294;BME280;60632;49.236;8.398;2022-09-09T06:37:05;100207.97;;;21.03;59.90
72294;BME280;60632;49.236;8.398;2022-09-09T06:40:06;100208.38;;;20.96;59.93
72294;BME280;60632;49.236;8.398;2022-09-09T06:43:07;100209.63;;;20.90;59.89
72294;BME280;60632;49.236;8.398;2022-09-09T06:46:20;100204.19;;;20.85;59.98
72294;BME280;60632;49.236;8.398;2022-09-09T06:49:27;100203.47;;;20.79;59.78
72294;BME280;60632;49.236;8.398;2022-09-09T06:52:27;100213.47;;;20.75;59.95
72294;BME280;60632;49.236;8.398;2022-09-09T06:55:28;100211.66;;;20.70;59.81
72294;BME280;60632;49.236;8.398;2022-09-09T06:58:28;100208.66;;;20.67;60.10
72294;BME280;60632;49.236;8.398;2022-09-09T07:01:30;100213.69;;;20.65;60.21
72294;BME280;60632;49.236;8.398;2022-09-09T07:04:31;100209.59;;;20.62;60.13
72294;BME280;60632;49.236;8.398;2022-09-09T07:07:32;100213.28;;;20.58;60.10
72294;BME280;60632;49.236;8.398;2022-09-09T07:10:32;100210.81;;;20.56;59.94
72294;BME280;60632;49.236;8.398;2022-09-09T07:13:34;100214.69;;;20.55;60.04
72294;BME280;60632;49.236;8.398;2022-09-09T07:16:36;100212.22;;;20.54;59.88
72294;BME280;60632;49.236;8.398;2022-09-09T07:19:39;100207.84;;;20.53;60.10
72294;BME280;60632;49.236;8.398;2022-09-09T07:22:40;100214.47;;;20.52;60.12
72294;BME280;60632;49.236;8.398;2022-09-09T07:25:44;100215.28;;;20.52;59.97
72294;BME280;60632;49.236;8.398;2022-09-09T07:28:45;100213.66;;;20.51;59.87
72294;BME280;60632;49.236;8.398;2022-09-09T07:31:46;100213.66;;;20.51;59.99
72294;BME280;60632;49.236;8.398;2022-09-09T07:34:46;100214.75;;;20.50;60.13
72294;BME280;60632;49.236;8.398;2022-09-09T07:37:47;100210.38;;;20.49;60.11
72294;BME280;60632;49.236;8.398;2022-09-09T07:40:47;100213.72;;;20.46;59.90
72294;BME280;60632;49.236;8.398;2022-09-09T07:43:48;100212.09;;;20.45;60.13
72294;BME280;60632;49.236;8.398;2022-09-09T07:46:49;100205.47;;;20.46;60.10
72294;BME280;60632;49.236;8.398;2022-09-09T07:49:49;100209.03;;;20.46;60.27
72294;BME280;60632;49.236;8.398;2022-09-09T07:52:53;100214.25;;;20.48;60.10
72294;BME280;60632;49.236;8.398;2022-09-09T07:55:53;100217.50;;;20.50;59.89
72294;BME280;60632;49.236;8.398;2022-09-09T07:58:55;100216.44;;;20.51;60.07
72294;BME280;60632;49.236;8.398;2022-09-09T08:01:56;100222.44;;;20.53;60.04
72294;BME280;60632;49.236;8.398;2022-09-09T08:04:56;100227.13;;;20.53;60.04
72294;BME280;60632;49.236;8.398;2022-09-09T08:07:59;100227.94;;;20.53;59.82
72294;BME280;60632;49.236;8.398;2022-09-09T08:11:04;100229.88;;;20.53;59.76
72294;BME280;60632;49.236;8.398;2022-09-09T08:14:06;100229.06;;;20.52;60.05
72294;BME280;60632;49.236;8.398;2022-09-09T08:17:07;100234.56;;;20.52;59.91
72294;BME280;60632;49.236;8.398;2022-09-09T08:20:08;100230.19;;;20.51;59.87
72294;BME280;60632;49.236;8.398;2022-09-09T08:23:08;100241.19;;;20.51;59.74
72294;BME280;60632;49.236;8.398;2022-09-09T08:26:12;100240.31;;;20.50;59.92
72294;BME280;60632;49.236;8.398;2022-09-09T08:29:13;100247.28;;;20.48;60.06
72294;BME280;60632;49.236;8.398;2022-09-09T08:32:13;100251.94;;;20.47;59.99
72294;BME280;60632;49.236;8.398;2022-09-09T08:35:14;100249.50;;;20.46;59.80
72294;BME280;60632;49.236;8.398;2022-09-09T08:38:14;100255.00;;;20.46;59.95
72294;BME280;60632;49.236;8.398;2022-09-09T08:50:37;100254.50;;;20.44;60.08
72294;BME280;60632;49.236;8.398;2022-09-09T08:53:42;100264.41;;;20.45;60.07
72294;BME280;60632;49.236;8.398;2022-09-09T08:56:44;100255.28;;;20.44;60.20
72294;BME280;60632;49.236;8.398;2022-09-09T08:59:45;100265.22;;;20.45;59.99
72294;BME280;60632;49.236;8.398;2022-09-09T09:11:50;100258.53;;;20.52;59.95
72294;BME280;60632;49.236;8.398;2022-09-09T09:14:51;100254.31;;;20.54;60.13
72294;BME280;60632;49.236;8.398;2022-09-09T09:17:52;100255.47;;;20.53;59.97
72294;BME280;60632;49.236;8.398;2022-09-09T09:24:02;100249.66;;;20.55;60.05
72294;BME280;60632;49.236;8.398;2022-09-09T09:27:13;100254.03;;;20.56;59.84
72294;BME280;60632;49.236;8.398;2022-09-09T09:30:15;100251.56;;;20.54;59.90
72294;BME280;60632;49.236;8.398;2022-09-09T09:36:34;100244.44;;;20.53;59.97
72294;BME280;60632;49.236;8.398;2022-09-09T09:39:34;100236.19;;;20.53;60.00
72294;BME280;60632;49.236;8.398;2022-09-09T09:42:37;100245.25;;;20.54;60.05
72294;BME280;60632;49.236;8.398;2022-09-09T09:45:42;100239.16;;;20.57;60.20
72294;BME280;60632;49.236;8.398;2022-09-09T09:48:44;100243.25;;;20.59;60.09
72294;BME280;60632;49.236;8.398;2022-09-09T09:51:46;100252.84;;;20.62;59.97
72294;BME280;60632;49.236;8.398;2022-09-09T09:54:47;100259.69;;;20.64;60.04
72294;BME280;60632;49.236;8.398;2022-09-09T09:57:47;100261.81;;;20.67;60.05
72294;BME280;60632;49.236;8.398;2022-09-09T10:00:51;100255.72;;;20.70;59.71
72294;BME280;60632;49.236;8.398;2022-09-09T10:03:53;100258.97;;;20.72;59.85
72294;BME280;60632;49.236;8.398;2022-09-09T10:06:54;100250.41;;;20.74;59.96
72294;BME280;60632;49.236;8.398;2022-09-09T10:09:55;100256.13;;;20.78;59.58
72294;BME280;60632;49.236;8.398;2022-09-09T10:13:01;100259.38;;;20.80;59.79
72294;BME280;60632;49.236;8.398;2022-09-09T10:22:28;100255.41;;;20.86;59.81
72294;BME280;60632;49.236;8.398;2022-09-09T10:47:43;100211.63;;;20.98;59.64
72294;BME280;60632;49.236;8.398;2022-09-09T10:50:54;100214.91;;;21.00;59.56
72294;BME280;60632;49.236;8.398;2022-09-09T10:57:10;100209.59;;;21.04;59.44
72294;BME280;60632;49.236;8.398;2022-09-09T11:00:15;100212.03;;;21.05;59.68
72294;BME280;60632;49.236;8.398;2022-09-09T11:03:21;100209.78;;;21.07;59.79
72294;BME280;60632;49.236;8.398;2022-09-09T11:06:27;100209.78;;;21.07;59.62
72294;BME280;60632;49.236;8.398;2022-09-09T11:09:31;100208.38;;;21.10;59.67
72294;BME280;60632;49.236;8.398;2022-09-09T11:12:33;100204.19;;;21.12;59.36
72294;BME280;60632;49.236;8.398;2022-09-09T11:15:39;100214.09;;;21.13;59.56
72294;BME280;60632;49.236;8.398;2022-09-09T11:18:41;100210.19;;;21.14;59.63
72294;BME280;60632;49.236;8.398;2022-09-09T11:21:47;100216.50;;;21.15;59.44
72294;BME280;60632;49.236;8.398;2022-09-09T11:24:50;100211.53;;;21.17;59.63
72294;BME280;60632;49.236;8.398;2022-09-09T11:28:16;100196.31;;;21.19;59.48
72294;BME280;60632;49.236;8.398;2022-09-09T11:41:19;100182.41;;;21.25;59.37
72294;BME280;60632;49.236;8.398;2022-09-09T11:44:30;100189.56;;;21.26;59.38
72294;BME280;60632;49.236;8.398;2022-09-09T11:47:31;100189.56;;;21.26;59.53
72294;BME280;60632;49.236;8.398;2022-09-09T11:50:35;100193.13;;;21.26;59.18
72294;BME280;60632;49.236;8.398;2022-09-09T11:56:49;100191.19;;;21.27;59.42
72294;BME280;60632;49.236;8.398;2022-09-09T11:59:50;100195.56;;;21.28;59.39
72294;BME280;60632;49.236;8.398;2022-09-09T12:02:52;100193.63;;;21.28;59.24
72294;BME280;60632;49.236;8.398;2022-09-09T12:05:52;100197.22;;;21.29;59.38
72294;BME280;60632;49.236;8.398;2022-09-09T12:08:55;100198.03;;;21.29;59.52
72294;BME280;60632;49.236;8.398;2022-09-09T12:18:14;100185.88;;;21.30;59.55
72294;BME280;60632;49.236;8.398;2022-09-09T12:21:32;100196.09;;;21.30;59.30
72294;BME280;60632;49.236;8.398;2022-09-09T12:24:40;100186.69;;;21.31;59.39
72294;BME280;60632;49.236;8.398;2022-09-09T12:33:51;100182.81;;;21.32;59.51
72294;BME280;60632;49.236;8.398;2022-09-09T12:36:54;100167.91;;;21.33;59.24
72294;BME280;60632;49.236;8.398;2022-09-09T12:39:57;100177.78;;;21.34;59.42
72294;BME280;60632;49.236;8.398;2022-09-09T12:42:59;100181.38;;;21.34;59.33
72294;BME280;60632;49.236;8.398;2022-09-09T12:46:02;100189.38;;;21.36;59.56
72294;BME280;60632;49.236;8.398;2022-09-09T12:49:04;100183.03;;;21.35;59.42
72294;BME280;60632;49.236;8.398;2022-09-09T12:52:26;100188.56;;;21.35;59.40
72294;BME280;60632;49.236;8.398;2022-09-09T12:55:35;100192.13;;;21.36;59.23
72294;BME280;60632;49.236;8.398;2022-09-09T12:58:36;100203.16;;;21.36;59.51
72294;BME280;60632;49.236;8.398;2022-09-09T13:01:37;100239.00;;;21.36;59.34
72294;BME280;60632;49.236;8.398;2022-09-09T13:04:38;100239.81;;;21.36;59.34
72294;BME280;60632;49.236;8.398;2022-09-09T13:07:38;100249.41;;;21.39;59.54
72294;BME280;60632;49.236;8.398;2022-09-09T13:13:39;100233.66;;;21.39;59.39
72294;BME280;60632;49.236;8.398;2022-09-09T13:16:40;100208.88;;;21.39;59.46
72294;BME280;60632;49.236;8.398;2022-09-09T13:19:44;100196.69;;;21.40;59.22
72294;BME280;60632;49.236;8.398;2022-09-09T13:22:46;100185.38;;;21.42;59.23
72294;BME280;60632;49.236;8.398;2022-09-09T13:25:54;100174.34;;;21.42;59.39
72294;BME280;60632;49.236;8.398;2022-09-09T13:28:55;100177.91;;;21.42;59.21
72294;BME280;60632;49.236;8.398;2022-09-09T13:32:15;100177.91;;;21.42;59.30
72294;BME280;60632;49.236;8.398;2022-09-09T13:35:23;100181.47;;;21.43;59.40
72294;BME280;60632;49.236;8.398;2022-09-09T13:38:24;100177.09;;;21.42;59.37
72294;BME280;60632;49.236;8.398;2022-09-09T13:41:29;100167.69;;;21.43;59.29
72294;BME280;60632;49.236;8.398;2022-09-09T13:44:31;100166.56;;;21.44;59.56
72294;BME280;60632;49.236;8.398;2022-09-09T13:47:35;100163.81;;;21.44;59.43
72294;BME280;60632;49.236;8.398;2022-09-09T13:50:35;100165.47;;;21.45;59.33
72294;BME280;60632;49.236;8.398;2022-09-09T13:53:36;100158.81;;;21.46;59.41
72294;BME280;60632;49.236;8.398;2022-09-09T13:56:36;100156.88;;;21.47;59.23
72294;BME280;60632;49.236;8.398;2022-09-09T13:59:37;100151.06;;;21.48;59.30
72294;BME280;60632;49.236;8.398;2022-09-09T14:02:37;100155.44;;;21.49;59.37
72294;BME280;60632;49.236;8.398;2022-09-09T14:05:39;100151.53;;;21.50;59.33
72294;BME280;60632;49.236;8.398;2022-09-09T14:08:39;100135.81;;;21.51;59.26
72294;BME280;60632;49.236;8.398;2022-09-09T14:11:48;100132.75;;;21.52;59.38
72294;BME280;60632;49.236;8.398;2022-09-09T14:14:49;100139.88;;;21.53;59.41
72294;BME280;60632;49.236;8.398;2022-09-09T14:17:50;100134.38;;;21.53;59.23
72294;BME280;60632;49.236;8.398;2022-09-09T14:20:52;100128.84;;;21.53;59.50
72294;BME280;60632;49.236;8.398;2022-09-09T14:23:52;100132.13;;;21.55;59.36
72294;BME280;60632;49.236;8.398;2022-09-09T14:26:54;100136.50;;;21.56;59.23
72294;BME280;60632;49.236;8.398;2022-09-09T14:29:54;100142.81;;;21.57;59.26
72294;BME280;60632;49.236;8.398;2022-09-09T14:32:55;100140.06;;;21.57;59.25
72294;BME280;60632;49.236;8.398;2022-09-09T14:35:56;100142.53;;;21.58;59.24
72294;BME280;60632;49.236;8.398;2022-09-09T14:38:57;100142.53;;;21.58;59.45
72294;BME280;60632;49.236;8.398;2022-09-09T14:41:58;100142.19;;;21.60;59.32
72294;BME280;60632;49.236;8.398;2022-09-09T14:44:59;100145.78;;;21.60;59.27
72294;BME280;60632;49.236;8.398;2022-09-09T14:47:59;100145.78;;;21.60;59.36
72294;BME280;60632;49.236;8.398;2022-09-09T14:51:10;100159.25;;;21.62;59.42
72294;BME280;60632;49.236;8.398;2022-09-09T14:54:12;100163.97;;;21.61;59.39
72294;BME280;60632;49.236;8.398;2022-09-09T14:57:14;100176.63;;;21.62;59.38
72294;BME280;60632;49.236;8.398;2022-09-09T15:00:15;100176.63;;;21.62;59.45
72294;BME280;60632;49.236;8.398;2022-09-09T15:03:16;100169.47;;;21.61;59.39
72294;BME280;60632;49.236;8.398;2022-09-09T15:06:17;100171.09;;;21.62;59.34
72294;BME280;60632;49.236;8.398;2022-09-09T15:09:17;100164.44;;;21.63;59.43
72294;BME280;60632;49.236;8.398;2022-09-09T15:12:18;100171.63;;;21.64;59.37
72294;BME280;60632;49.236;8.398;2022-09-09T15:15:18;100177.13;;;21.64;59.28
72294;BME280;60632;49.236;8.398;2022-09-09T15:18:19;100165.25;;;21.64;59.36
72294;BME280;60632;49.236;8.398;2022-09-09T15:21:20;100168.84;;;21.64;59.47
72294;BME280;60632;49.236;8.398;2022-09-09T15:24:21;100176.00;;;21.65;59.38
72294;BME280;60632;49.236;8.398;2022-09-09T15:27:22;100176.81;;;21.66;59.12
72294;BME280;60632;49.236;8.398;2022-09-09T15:30:23;100178.44;;;21.67;59.26
72294;BME280;60632;49.236;8.398;2022-09-09T15:33:24;100173.75;;;21.67;59.35
72294;BME280;60632;49.236;8.398;2022-09-09T15:36:24;100162.72;;;21.67;59.37
72294;BME280;60632;49.236;8.398;2022-09-09T15:39:26;100157.22;;;21.67;59.39
72294;BME280;60632;49.236;8.398;2022-09-09T15:42:26;100152.50;;;21.68;59.44
72294;BME280;60632;49.236;8.398;2022-09-09T15:45:27;100142.28;;;21.69;59.31
72294;BME280;60632;49.236;8.398;2022-09-09T15:48:30;100154.13;;;21.69;59.42
72294;BME280;60632;49.236;8.398;2022-09-09T15:51:34;100160.44;;;21.70;59.31
72294;BME280;60632;49.236;8.398;2022-09-09T15:54:35;100173.13;;;21.71;59.28
72294;BME280;60632;49.236;8.398;2022-09-09T15:57:35;100170.38;;;21.71;59.47
72294;BME280;60632;49.236;8.398;2022-09-09T16:00:36;100177.50;;;21.72;59.29
72294;BME280;60632;49.236;8.398;2022-09-09T16:03:39;100195.38;;;21.74;59.32
72294;BME280;60632;49.236;8.398;2022-09-09T16:06:41;100200.91;;;21.74;59.49
72294;BME280;60632;49.236;8.398;2022-09-09T16:09:41;100201.72;;;21.75;59.24
72294;BME280;60632;49.236;8.398;2022-09-09T16:12:43;100205.28;;;21.75;59.29
72294;BME280;60632;49.236;8.398;2022-09-09T16:15:44;100214.38;;;21.76;59.25
72294;BME280;60632;49.236;8.398;2022-09-09T16:18:46;100214.38;;;21.76;59.36
72294;BME280;60632;49.236;8.398;2022-09-09T16:21:48;100201.09;;;21.78;59.32
72294;BME280;60632;49.236;8.398;2022-09-09T16:24:49;100201.91;;;21.78;59.32
72294;BME280;60632;49.236;8.398;2022-09-09T16:27:49;100208.22;;;21.79;59.22
72294;BME280;60632;49.236;8.398;2022-09-09T16:30:49;100206.59;;;21.78;59.35
72294;BME280;60632;49.236;8.398;2022-09-09T16:33:50;100196.38;;;21.78;59.25
72294;BME280;60632;49.236;8.398;2022-09-09T16:36:50;100198.00;;;21.79;59.14
72294;BME280;60632;49.236;8.398;2022-09-09T16:39:51;100194.94;;;21.81;59.38
72294;BME280;60632;49.236;8.398;2022-09-09T16:42:52;100197.69;;;21.81;59.29
72294;BME280;60632;49.236;8.398;2022-09-09T16:45:52;100214.25;;;21.81;59.13
72294;BME280;60632;49.236;8.398;2022-09-09T16:48:52;100216.19;;;21.80;59.33
72294;BME280;60632;49.236;8.398;2022-09-09T16:51:56;100227.72;;;21.82;59.44
72294;BME280;60632;49.236;8.398;2022-09-09T16:54:57;100224.16;;;21.82;59.47
72294;BME280;60632;49.236;8.398;2022-09-09T16:57:57;100226.91;;;21.82;59.36
72294;BME280;60632;49.236;8.398;2022-09-09T17:00:58;100215.06;;;21.81;59.28
72294;BME280;60632;49.236;8.398;2022-09-09T17:04:00;100215.88;;;21.82;59.12
72294;BME280;60632;49.236;8.398;2022-09-09T17:07:03;100214.75;;;21.83;59.25
72294;BME280;60632;49.236;8.398;2022-09-09T17:10:04;100214.75;;;21.83;59.19
72294;BME280;60632;49.236;8.398;2022-09-09T17:13:05;100223.84;;;21.83;59.27
72294;BME280;60632;49.236;8.398;2022-09-09T17:16:05;100223.00;;;21.83;59.08
72294;BME280;60632;49.236;8.398;2022-09-09T17:19:06;100225.78;;;21.83;59.46
72294;BME280;60632;49.236;8.398;2022-09-09T17:22:08;100229.38;;;21.83;59.13
72294;BME280;60632;49.236;8.398;2022-09-09T17:25:08;100234.06;;;21.83;59.26
72294;BME280;60632;49.236;8.398;2022-09-09T17:28:09;100225.78;;;21.83;59.35
72294;BME280;60632;49.236;8.398;2022-09-09T17:31:10;100228.53;;;21.83;59.29
72294;BME280;60632;49.236;8.398;2022-09-09T17:34:10;100229.38;;;21.83;59.36
72294;BME280;60632;49.236;8.398;2022-09-09T17:37:11;100232.94;;;21.84;59.37
72294;BME280;60632;49.236;8.398;2022-09-09T17:40:12;100237.66;;;21.83;59.23
72294;BME280;60632;49.236;8.398;2022-09-09T17:43:12;100226.63;;;21.83;59.41
72294;BME280;60632;49.236;8.398;2022-09-09T17:46:15;100225.47;;;21.84;59.29
72294;BME280;60632;49.236;8.398;2022-09-09T17:49:16;100227.44;;;21.84;59.40
72294;BME280;60632;49.236;8.398;2022-09-09T17:52:20;100220.25;;;21.83;59.27
72294;BME280;60632;49.236;8.398;2022-09-09T17:55:21;100228.53;;;21.83;59.17
72294;BME280;60632;49.236;8.398;2022-09-09T17:58:21;100232.13;;;21.83;59.16
72294;BME280;60632;49.236;8.398;2022-09-09T18:01:23;100238.47;;;21.84;59.29
72294;BME280;60632;49.236;8.398;2022-09-09T18:04:23;100223.84;;;21.83;59.41